sensor_id;sensor_type;location;lat;lon;timestamp;temperature;humidity
73137;DHT22;62977;45.636;11.750;2022-09-28T00:01:17;15.70;80.30
73137;DHT22;62977;45.636;11.750;2022-09-28T00:03:48;15.70;80.80
73137;DHT22;62977;45.636;11.750;2022-09-28T00:06:16;15.80;80.30
73137;DHT22;62977;45.636;11.750;2022-09-28T00:08:43;15.80;80.20
73137;DHT22;62977;45.636;11.750;2022-09-28T00:11:11;15.80;80.00
73137;DHT22;62977;45.636;11.750;2022-09-28T00:13:38;15.80;80.10
73137;DHT22;62977;45.636;11.750;2022-09-28T00:16:09;15.80;80.70
73137;DHT22;62977;45.636;11.750;2022-09-28T00:18:35;15.70;80.90
73137;DHT22;62977;45.636;11.750;2022-09-28T00:21:01;15.60;80.80
73137;DHT22;62977;45.636;11.750;2022-09-28T00:23:28;15.60;80.70
73137;DHT22;62977;45.636;11.750;2022-09-28T00:25:53;15.50;80.80
73137;DHT22;62977;45.636;11.750;2022-09-28T00:28:19;15.50;80.80
73137;DHT22;62977;45.636;11.750;2022-09-28T00:30:45;15.50;80.70
73137;DHT22;62977;45.636;11.750;2022-09-28T00:33:11;15.50;80.90
73137;DHT22;62977;45.636;11.750;2022-09-28T00:35:36;15.40;82.20
73137;DHT22;62977;45.636;11.750;2022-09-28T00:38:02;15.40;82.10
73137;DHT22;62977;45.636;11.750;2022-09-28T00:40:28;15.30;82.00
73137;DHT22;62977;45.636;11.750;2022-09-28T00:42:54;15.30;82.10
73137;DHT22;62977;45.636;11.750;2022-09-28T00:45:21;15.30;82.20
73137;DHT22;62977;45.636;11.750;2022-09-28T00:47:52;15.40;82.10
73137;DHT22;62977;45.636;11.750;2022-09-28T00:50:31;15.40;82.00
73137;DHT22;62977;45.636;11.750;2022-09-28T00:55:49;15.40;79.50
73137;DHT22;62977;45.636;11.750;2022-09-28T00:58:19;15.50;79.10
73137;DHT22;62977;45.636;11.750;2022-09-28T01:00:46;15.60;79.40
73137;DHT22;62977;45.636;11.750;2022-09-28T01:03:12;15.60;79.80
73137;DHT22;62977;45.636;11.750;2022-09-28T01:05:39;15.40;79.80
73137;DHT22;62977;45.636;11.750;2022-09-28T01:08:05;15.30;81.30
73137;DHT22;62977;45.636;11.750;2022-09-28T01:10:32;15.40;81.40
73137;DHT22;62977;45.636;11.750;2022-09-28T01:12:58;15.30;81.30
73137;DHT22;62977;45.636;11.750;2022-09-28T01:15:27;15.50;80.40
73137;DHT22;62977;45.636;11.750;2022-09-28T01:28:58;15.50;80.70
73137;DHT22;62977;45.636;11.750;2022-09-28T01:31:29;15.50;80.50
73137;DHT22;62977;45.636;11.750;2022-09-28T01:34:01;15.40;81.70
73137;DHT22;62977;45.636;11.750;2022-09-28T01:36:42;15.40;81.70
73137;DHT22;62977;45.636;11.750;2022-09-28T01:39:17;15.40;80.60
73137;DHT22;62977;45.636;11.750;2022-09-28T01:41:48;15.40;80.40
73137;DHT22;62977;45.636;11.750;2022-09-28T01:44:17;15.40;81.70
73137;DHT22;62977;45.636;11.750;2022-09-28T01:46:48;15.30;81.60
73137;DHT22;62977;45.636;11.750;2022-09-28T01:49:26;15.40;82.10
73137;DHT22;62977;45.636;11.750;2022-09-28T01:52:20;15.40;80.10
73137;DHT22;62977;45.636;11.750;2022-09-28T01:55:16;15.30;81.50
73137;DHT22;62977;45.636;11.750;2022-09-28T02:00:32;15.30;81.60
73137;DHT22;62977;45.636;11.750;2022-09-28T02:05:33;15.20;81.60
73137;DHT22;62977;45.636;11.750;2022-09-28T02:08:11;15.40;81.30
73137;DHT22;62977;45.636;11.750;2022-09-28T02:11:08;15.30;81.30
73137;DHT22;62977;45.636;11.750;2022-09-28T02:13:45;15.40;81.30
73137;DHT22;62977;45.636;11.750;2022-09-28T02:16:25;15.50;79.80
73137;DHT22;62977;45.636;11.750;2022-09-28T02:18:54;15.50;80.60
73137;DHT22;62977;45.636;11.750;2022-09-28T02:21:27;15.40;81.60
73137;DHT22;62977;45.636;11.750;2022-09-28T02:24:03;15.10;82.00
73137;DHT22;62977;45.636;11.750;2022-09-28T02:26:39;15.00;82.30
73137;DHT22;62977;45.636;11.750;2022-09-28T02:29:06;15.10;82.20
73137;DHT22;62977;45.636;11.750;2022-09-28T02:31:32;15.20;82.00
73137;DHT22;62977;45.636;11.750;2022-09-28T02:33:58;15.40;82.00
73137;DHT22;62977;45.636;11.750;2022-09-28T02:36:25;15.30;82.00
73137;DHT22;62977;45.636;11.750;2022-09-28T02:38:52;15.30;82.20
73137;DHT22;62977;45.636;11.750;2022-09-28T03:00:11;15.30;82.00
73137;DHT22;62977;45.636;11.750;2022-09-28T03:05:44;15.40;82.40
73137;DHT22;62977;45.636;11.750;2022-09-28T03:08:35;15.50;80.80
73137;DHT22;62977;45.636;11.750;2022-09-28T03:11:08;15.50;80.90
73137;DHT22;62977;45.636;11.750;2022-09-28T03:13:36;15.50;80.90
73137;DHT22;62977;45.636;11.750;2022-09-28T03:16:13;15.60;81.10
73137;DHT22;62977;45.636;11.750;2022-09-28T03:18:40;15.60;80.40
73137;DHT22;62977;45.636;11.750;2022-09-28T03:21:06;15.50;80.40
73137;DHT22;62977;45.636;11.750;2022-09-28T03:23:32;15.60;80.90
73137;DHT22;62977;45.636;11.750;2022-09-28T03:25:58;15.60;80.60
73137;DHT22;62977;45.636;11.750;2022-09-28T03:28:23;15.60;80.60
73137;DHT22;62977;45.636;11.750;2022-09-28T03:30:50;15.60;80.70
73137;DHT22;62977;45.636;11.750;2022-09-28T03:33:15;15.60;80.90
73137;DHT22;62977;45.636;11.750;2022-09-28T03:35:43;15.60;80.80
73137;DHT22;62977;45.636;11.750;2022-09-28T03:38:10;15.70;80.90
73137;DHT22;62977;45.636;11.750;2022-09-28T03:40:35;15.60;81.00
73137;DHT22;62977;45.636;11.750;2022-09-28T03:43:01;15.60;81.00
73137;DHT22;62977;45.636;11.750;2022-09-28T03:45:27;15.60;81.10
73137;DHT22;62977;45.636;11.750;2022-09-28T03:47:52;15.60;81.00
73137;DHT22;62977;45.636;11.750;2022-09-28T03:50:18;15.40;82.10
73137;DHT22;62977;45.636;11.750;2022-09-28T03:52:44;15.40;82.20
73137;DHT22;62977;45.636;11.750;2022-09-28T03:55:09;15.40;82.10
73137;DHT22;62977;45.636;11.750;2022-09-28T03:57:35;15.50;81.00
73137;DHT22;62977;45.636;11.750;2022-09-28T04:00:03;15.60;81.00
73137;DHT22;62977;45.636;11.750;2022-09-28T04:02:29;15.50;81.10
73137;DHT22;62977;45.636;11.750;2022-09-28T04:04:55;15.50;81.40
73137;DHT22;62977;45.636;11.750;2022-09-28T04:07:21;15.50;80.90
73137;DHT22;62977;45.636;11.750;2022-09-28T04:09:47;15.60;80.90
73137;DHT22;62977;45.636;11.750;2022-09-28T04:12:13;15.60;80.80
73137;DHT22;62977;45.636;11.750;2022-09-28T04:14:38;15.60;81.40
73137;DHT22;62977;45.636;11.750;2022-09-28T04:17:04;15.50;80.90
73137;DHT22;62977;45.636;11.750;2022-09-28T04:19:30;15.60;80.90
73137;DHT22;62977;45.636;11.750;2022-09-28T04:21:56;15.60;80.80
73137;DHT22;62977;45.636;11.750;2022-09-28T04:24:22;15.50;80.90
73137;DHT22;62977;45.636;11.750;2022-09-28T04:26:47;15.50;80.90
73137;DHT22;62977;45.636;11.750;2022-09-28T04:29:14;15.60;80.90
73137;DHT22;62977;45.636;11.750;2022-09-28T04:34:08;15.50;81.10
73137;DHT22;62977;45.636;11.750;2022-09-28T04:36:34;15.60;80.40
73137;DHT22;62977;45.636;11.750;2022-09-28T04:39:00;15.60;80.40
73137;DHT22;62977;45.636;11.750;2022-09-28T04:41:26;15.60;80.90
73137;DHT22;62977;45.636;11.750;2022-09-28T04:43:51;15.60;81.10
73137;DHT22;62977;45.636;11.750;2022-09-28T04:46:17;15.60;80.90
73137;DHT22;62977;45.636;11.750;2022-09-28T04:48:44;15.70;81.00
73137;DHT22;62977;45.636;11.750;2022-09-28T04:51:10;15.70;81.00
73137;DHT22;62977;45.636;11.750;2022-09-28T04:53:35;15.80;80.90
73137;DHT22;62977;45.636;11.750;2022-09-28T04:56:06;15.70;80.80
73137;DHT22;62977;45.636;11.750;2022-09-28T04:58:34;15.60;80.50
73137;DHT22;62977;45.636;11.750;2022-09-28T05:01:02;15.70;80.50
73137;DHT22;62977;45.636;11.750;2022-09-28T05:03:28;15.70;80.70
73137;DHT22;62977;45.636;11.750;2022-09-28T05:05:54;15.80;80.30
73137;DHT22;62977;45.636;11.750;2022-09-28T05:08:20;15.70;80.30
73137;DHT22;62977;45.636;11.750;2022-09-28T05:10:46;15.60;80.80
73137;DHT22;62977;45.636;11.750;2022-09-28T05:13:12;15.50;81.60
73137;DHT22;62977;45.636;11.750;2022-09-28T05:15:39;15.60;81.60
73137;DHT22;62977;45.636;11.750;2022-09-28T05:18:05;15.60;81.70
73137;DHT22;62977;45.636;11.750;2022-09-28T05:20:31;15.70;81.20
73137;DHT22;62977;45.636;11.750;2022-09-28T05:22:57;15.80;81.30
73137;DHT22;62977;45.636;11.750;2022-09-28T05:25:23;15.80;81.10
73137;DHT22;62977;45.636;11.750;2022-09-28T05:27:54;15.80;80.80
73137;DHT22;62977;45.636;11.750;2022-09-28T05:30:21;15.80;79.90
73137;DHT22;62977;45.636;11.750;2022-09-28T05:32:47;15.90;80.10
73137;DHT22;62977;45.636;11.750;2022-09-28T05:35:15;15.90;80.00
73137;DHT22;62977;45.636;11.750;2022-09-28T05:37:41;16.00;79.90
73137;DHT22;62977;45.636;11.750;2022-09-28T05:40:08;16.00;79.60
73137;DHT22;62977;45.636;11.750;2022-09-28T05:42:33;16.10;79.50
73137;DHT22;62977;45.636;11.750;2022-09-28T05:44:59;16.10;80.30
73137;DHT22;62977;45.636;11.750;2022-09-28T05:47:26;16.10;80.10
73137;DHT22;62977;45.636;11.750;2022-09-28T05:49:52;16.10;80.30
73137;DHT22;62977;45.636;11.750;2022-09-28T05:52:18;16.10;80.20
73137;DHT22;62977;45.636;11.750;2022-09-28T05:54:44;16.20;80.40
73137;DHT22;62977;45.636;11.750;2022-09-28T05:57:10;16.20;80.20
73137;DHT22;62977;45.636;11.750;2022-09-28T05:59:36;16.20;79.90
73137;DHT22;62977;45.636;11.750;2022-09-28T06:02:03;16.10;80.20
73137;DHT22;62977;45.636;11.750;2022-09-28T06:04:29;16.10;80.60
73137;DHT22;62977;45.636;11.750;2022-09-28T06:06:55;16.10;80.60
73137;DHT22;62977;45.636;11.750;2022-09-28T06:09:21;16.00;80.30
73137;DHT22;62977;45.636;11.750;2022-09-28T06:11:49;16.00;80.60
73137;DHT22;62977;45.636;11.750;2022-09-28T06:14:14;16.00;80.60
73137;DHT22;62977;45.636;11.750;2022-09-28T06:16:40;15.90;80.50
73137;DHT22;62977;45.636;11.750;2022-09-28T06:19:10;16.00;80.90
73137;DHT22;62977;45.636;11.750;2022-09-28T06:21:37;16.10;80.70
73137;DHT22;62977;45.636;11.750;2022-09-28T06:24:03;16.00;80.50
73137;DHT22;62977;45.636;11.750;2022-09-28T06:26:29;16.10;80.20
73137;DHT22;62977;45.636;11.750;2022-09-28T06:28:55;16.20;80.10
73137;DHT22;62977;45.636;11.750;2022-09-28T06:31:21;16.20;80.00
73137;DHT22;62977;45.636;11.750;2022-09-28T06:33:50;16.30;79.60
73137;DHT22;62977;45.636;11.750;2022-09-28T06:36:16;16.20;79.10
73137;DHT22;62977;45.636;11.750;2022-09-28T06:38:42;16.20;79.10
73137;DHT22;62977;45.636;11.750;2022-09-28T06:41:08;16.40;78.70
73137;DHT22;62977;45.636;11.750;2022-09-28T06:43:35;16.30;78.40
73137;DHT22;62977;45.636;11.750;2022-09-28T06:46:01;16.40;78.40
73137;DHT22;62977;45.636;11.750;2022-09-28T06:48:27;16.60;78.50
73137;DHT22;62977;45.636;11.750;2022-09-28T06:50:53;16.60;77.90
73137;DHT22;62977;45.636;11.750;2022-09-28T06:53:18;16.70;77.50
73137;DHT22;62977;45.636;11.750;2022-09-28T06:55:45;16.70;77.00
73137;DHT22;62977;45.636;11.750;2022-09-28T06:58:16;16.50;77.00
73137;DHT22;62977;45.636;11.750;2022-09-28T07:00:43;16.60;76.70
73137;DHT22;62977;45.636;11.750;2022-09-28T07:03:14;16.80;76.50
73137;DHT22;62977;45.636;11.750;2022-09-28T07:05:42;16.70;76.10
73137;DHT22;62977;45.636;11.750;2022-09-28T07:08:09;16.90;75.70
73137;DHT22;62977;45.636;11.750;2022-09-28T07:10:34;16.90;75.70
73137;DHT22;62977;45.636;11.750;2022-09-28T07:13:02;16.90;75.80
73137;DHT22;62977;45.636;11.750;2022-09-28T07:15:29;16.90;75.80
73137;DHT22;62977;45.636;11.750;2022-09-28T07:18:00;16.90;75.70
73137;DHT22;62977;45.636;11.750;2022-09-28T07:20:26;17.00;75.30
73137;DHT22;62977;45.636;11.750;2022-09-28T07:22:55;17.10;75.30
73137;DHT22;62977;45.636;11.750;2022-09-28T07:25:22;17.00;75.70
73137;DHT22;62977;45.636;11.750;2022-09-28T07:27:48;17.00;75.40
73137;DHT22;62977;45.636;11.750;2022-09-28T07:30:15;17.00;75.80
73137;DHT22;62977;45.636;11.750;2022-09-28T07:32:44;17.10;75.40
73137;DHT22;62977;45.636;11.750;2022-09-28T07:35:09;17.20;75.20
73137;DHT22;62977;45.636;11.750;2022-09-28T07:37:35;17.00;75.60
73137;DHT22;62977;45.636;11.750;2022-09-28T07:40:03;17.20;75.30
73137;DHT22;62977;45.636;11.750;2022-09-28T07:43:07;17.20;75.20
73137;DHT22;62977;45.636;11.750;2022-09-28T07:45:33;17.30;75.10
73137;DHT22;62977;45.636;11.750;2022-09-28T07:48:01;17.40;75.30
73137;DHT22;62977;45.636;11.750;2022-09-28T07:50:27;17.50;75.60
73137;DHT22;62977;45.636;11.750;2022-09-28T07:52:55;17.50;75.70
73137;DHT22;62977;45.636;11.750;2022-09-28T07:55:21;17.60;75.50
73137;DHT22;62977;45.636;11.750;2022-09-28T07:57:53;17.70;75.00
73137;DHT22;62977;45.636;11.750;2022-09-28T08:00:20;17.70;74.60
73137;DHT22;62977;45.636;11.750;2022-09-28T08:02:46;17.80;75.10
73137;DHT22;62977;45.636;11.750;2022-09-28T08:05:12;17.90;74.60
73137;DHT22;62977;45.636;11.750;2022-09-28T08:07:38;18.00;74.60
73137;DHT22;62977;45.636;11.750;2022-09-28T08:10:04;18.00;74.10
73137;DHT22;62977;45.636;11.750;2022-09-28T08:12:30;18.10;73.10
73137;DHT22;62977;45.636;11.750;2022-09-28T08:14:56;18.20;71.60
73137;DHT22;62977;45.636;11.750;2022-09-28T08:17:24;18.30;71.80
73137;DHT22;62977;45.636;11.750;2022-09-28T08:19:50;18.60;71.40
73137;DHT22;62977;45.636;11.750;2022-09-28T08:22:34;18.80;71.10
73137;DHT22;62977;45.636;11.750;2022-09-28T08:24:59;19.00;71.20
73137;DHT22;62977;45.636;11.750;2022-09-28T08:27:25;19.10;71.20
73137;DHT22;62977;45.636;11.750;2022-09-28T08:29:51;19.20;70.30
73137;DHT22;62977;45.636;11.750;2022-09-28T08:32:16;19.00;68.00
73137;DHT22;62977;45.636;11.750;2022-09-28T08:34:43;18.90;67.30
73137;DHT22;62977;45.636;11.750;2022-09-28T08:37:08;18.90;67.90
73137;DHT22;62977;45.636;11.750;2022-09-28T08:39:35;18.90;70.00
73137;DHT22;62977;45.636;11.750;2022-09-28T08:44:48;18.80;65.50
73137;DHT22;62977;45.636;11.750;2022-09-28T08:50:33;18.90;65.10
73137;DHT22;62977;45.636;11.750;2022-09-28T08:53:11;19.00;64.00
73137;DHT22;62977;45.636;11.750;2022-09-28T08:55:38;19.00;64.00
73137;DHT22;62977;45.636;11.750;2022-09-28T08:58:19;18.90;63.20
73137;DHT22;62977;45.636;11.750;2022-09-28T09:00:49;18.90;63.20
73137;DHT22;62977;45.636;11.750;2022-09-28T09:03:18;19.00;63.70
73137;DHT22;62977;45.636;11.750;2022-09-28T09:05:54;19.00;63.70
73137;DHT22;62977;45.636;11.750;2022-09-28T09:11:17;19.10;63.50
73137;DHT22;62977;45.636;11.750;2022-09-28T09:19:15;19.30;63.10
73137;DHT22;62977;45.636;11.750;2022-09-28T09:21:58;19.50;63.00
73137;DHT22;62977;45.636;11.750;2022-09-28T09:24:44;19.50;61.50
73137;DHT22;62977;45.636;11.750;2022-09-28T09:38:03;19.60;59.70
73137;DHT22;62977;45.636;11.750;2022-09-28T09:40:39;19.80;58.70
73137;DHT22;62977;45.636;11.750;2022-09-28T09:46:59;20.00;59.20
73137;DHT22;62977;45.636;11.750;2022-09-28T09:49:20;20.20;59.40
73137;DHT22;62977;45.636;11.750;2022-09-28T09:54:34;20.00;59.30
73137;DHT22;62977;45.636;11.750;2022-09-28T09:57:06;19.90;59.90
73137;DHT22;62977;45.636;11.750;2022-09-28T09:59:38;19.80;58.90
73137;DHT22;62977;45.636;11.750;2022-09-28T10:02:27;19.70;59.70
73137;DHT22;62977;45.636;11.750;2022-09-28T10:05:23;19.70;58.80
73137;DHT22;62977;45.636;11.750;2022-09-28T10:10:32;19.90;58.60
73137;DHT22;62977;45.636;11.750;2022-09-28T10:12:58;20.00;58.80
73137;DHT22;62977;45.636;11.750;2022-09-28T10:15:26;19.80;58.60
73137;DHT22;62977;45.636;11.750;2022-09-28T10:17:54;20.00;58.40
73137;DHT22;62977;45.636;11.750;2022-09-28T10:20:21;20.20;58.60
73137;DHT22;62977;45.636;11.750;2022-09-28T10:22:55;20.20;58.30
73137;DHT22;62977;45.636;11.750;2022-09-28T10:25:21;20.00;57.30
73137;DHT22;62977;45.636;11.750;2022-09-28T10:27:48;20.00;58.10
73137;DHT22;62977;45.636;11.750;2022-09-28T10:32:45;20.30;57.70
73137;DHT22;62977;45.636;11.750;2022-09-28T10:38:16;20.40;57.80
73137;DHT22;62977;45.636;11.750;2022-09-28T10:40:51;20.50;57.70
73137;DHT22;62977;45.636;11.750;2022-09-28T10:43:24;20.70;55.20
73137;DHT22;62977;45.636;11.750;2022-09-28T10:46:12;21.00;52.90
73137;DHT22;62977;45.636;11.750;2022-09-28T10:48:58;21.50;55.20
73137;DHT22;62977;45.636;11.750;2022-09-28T10:51:42;21.70;53.20
73137;DHT22;62977;45.636;11.750;2022-09-28T10:54:24;22.10;52.60
73137;DHT22;62977;45.636;11.750;2022-09-28T10:56:52;22.50;51.50
73137;DHT22;62977;45.636;11.750;2022-09-28T10:59:39;22.70;50.70
73137;DHT22;62977;45.636;11.750;2022-09-28T11:02:25;23.00;47.50
73137;DHT22;62977;45.636;11.750;2022-09-28T11:04:58;22.80;47.60
73137;DHT22;62977;45.636;11.750;2022-09-28T11:07:43;23.40;48.00
73137;DHT22;62977;45.636;11.750;2022-09-28T11:10:20;23.40;47.00
73137;DHT22;62977;45.636;11.750;2022-09-28T11:12:46;23.50;46.00
73137;DHT22;62977;45.636;11.750;2022-09-28T11:15:19;23.90;44.90
73137;DHT22;62977;45.636;11.750;2022-09-28T11:17:45;24.10;44.50
73137;DHT22;62977;45.636;11.750;2022-09-28T11:20:37;24.30;44.80
73137;DHT22;62977;45.636;11.750;2022-09-28T11:23:28;24.40;43.70
73137;DHT22;62977;45.636;11.750;2022-09-28T11:26:05;24.20;43.40
73137;DHT22;62977;45.636;11.750;2022-09-28T11:28:34;24.00;44.40
73137;DHT22;62977;45.636;11.750;2022-09-28T11:31:02;23.60;46.10
73137;DHT22;62977;45.636;11.750;2022-09-28T11:33:34;23.70;44.10
73137;DHT22;62977;45.636;11.750;2022-09-28T11:36:08;23.70;45.60
73137;DHT22;62977;45.636;11.750;2022-09-28T11:41:35;23.10;47.60
73137;DHT22;62977;45.636;11.750;2022-09-28T11:47:00;23.10;48.10
73137;DHT22;62977;45.636;11.750;2022-09-28T11:49:39;22.90;49.40
73137;DHT22;62977;45.636;11.750;2022-09-28T11:52:21;22.60;50.50
73137;DHT22;62977;45.636;11.750;2022-09-28T11:55:08;22.70;49.00
73137;DHT22;62977;45.636;11.750;2022-09-28T11:57:38;22.90;48.90
73137;DHT22;62977;45.636;11.750;2022-09-28T12:00:17;22.70;49.70
73137;DHT22;62977;45.636;11.750;2022-09-28T12:03:03;22.60;50.30
73137;DHT22;62977;45.636;11.750;2022-09-28T12:05:33;22.90;48.80
73137;DHT22;62977;45.636;11.750;2022-09-28T12:08:18;22.70;49.90
73137;DHT22;62977;45.636;11.750;2022-09-28T12:11:10;23.00;49.60
73137;DHT22;62977;45.636;11.750;2022-09-28T12:13:40;22.70;49.20
73137;DHT22;62977;45.636;11.750;2022-09-28T12:16:35;22.60;50.30
73137;DHT22;62977;45.636;11.750;2022-09-28T12:19:11;22.30;51.30
73137;DHT22;62977;45.636;11.750;2022-09-28T12:21:59;22.40;51.20
73137;DHT22;62977;45.636;11.750;2022-09-28T12:24:32;22.30;52.10
73137;DHT22;62977;45.636;11.750;2022-09-28T12:27:16;22.40;50.50
73137;DHT22;62977;45.636;11.750;2022-09-28T12:29:50;22.60;51.10
73137;DHT22;62977;45.636;11.750;2022-09-28T12:35:16;22.60;51.50
73137;DHT22;62977;45.636;11.750;2022-09-28T12:40:37;22.90;51.00
73137;DHT22;62977;45.636;11.750;2022-09-28T12:43:29;23.00;50.30
73137;DHT22;62977;45.636;11.750;2022-09-28T12:48:59;22.80;51.80
73137;DHT22;62977;45.636;11.750;2022-09-28T13:11:01;23.00;50.00
73137;DHT22;62977;45.636;11.750;2022-09-28T13:13:53;22.90;50.90
73137;DHT22;62977;45.636;11.750;2022-09-28T13:19:19;23.30;50.30
73137;DHT22;62977;45.636;11.750;2022-09-28T13:24:30;23.50;49.40
73137;DHT22;62977;45.636;11.750;2022-09-28T13:27:00;23.90;47.60
73137;DHT22;62977;45.636;11.750;2022-09-28T13:29:29;24.30;45.40
73137;DHT22;62977;45.636;11.750;2022-09-28T13:31:57;24.00;47.20
73137;DHT22;62977;45.636;11.750;2022-09-28T13:34:28;24.00;46.40
73137;DHT22;62977;45.636;11.750;2022-09-28T13:39:36;23.40;48.00
73137;DHT22;62977;45.636;11.750;2022-09-28T13:42:04;23.00;49.50
73137;DHT22;62977;45.636;11.750;2022-09-28T13:50:15;22.60;51.40
73137;DHT22;62977;45.636;11.750;2022-09-28T13:58:23;22.40;51.20
73137;DHT22;62977;45.636;11.750;2022-09-28T14:00:58;22.40;51.80
73137;DHT22;62977;45.636;11.750;2022-09-28T14:08:37;22.10;53.40
73137;DHT22;62977;45.636;11.750;2022-09-28T14:16:42;22.00;53.90
73137;DHT22;62977;45.636;11.750;2022-09-28T14:19:15;22.00;54.40
73137;DHT22;62977;45.636;11.750;2022-09-28T14:24:32;21.70;54.20
73137;DHT22;62977;45.636;11.750;2022-09-28T14:32:32;22.00;54.80
73137;DHT22;62977;45.636;11.750;2022-09-28T14:35:03;21.90;55.50
73137;DHT22;62977;45.636;11.750;2022-09-28T14:37:36;22.00;55.50
73137;DHT22;62977;45.636;11.750;2022-09-28T14:54:16;21.80;55.30
73137;DHT22;62977;45.636;11.750;2022-09-28T14:56:44;22.00;55.50
73137;DHT22;62977;45.636;11.750;2022-09-28T14:59:16;21.90;55.10
73137;DHT22;62977;45.636;11.750;2022-09-28T15:04:18;21.90;55.50
73137;DHT22;62977;45.636;11.750;2022-09-28T15:06:49;21.90;55.90
73137;DHT22;62977;45.636;11.750;2022-09-28T15:09:35;21.50;55.50
73137;DHT22;62977;45.636;11.750;2022-09-28T15:12:10;21.60;56.10
73137;DHT22;62977;45.636;11.750;2022-09-28T15:15:06;21.70;55.80
73137;DHT22;62977;45.636;11.750;2022-09-28T15:17:47;21.70;55.60
73137;DHT22;62977;45.636;11.750;2022-09-28T15:20:30;21.80;56.10
73137;DHT22;62977;45.636;11.750;2022-09-28T15:22:58;21.80;56.10
73137;DHT22;62977;45.636;11.750;2022-09-28T15:25:31;21.70;57.10
73137;DHT22;62977;45.636;11.750;2022-09-28T15:28:17;21.60;57.40
73137;DHT22;62977;45.636;11.750;2022-09-28T15:30:42;21.70;57.30
73137;DHT22;62977;45.636;11.750;2022-09-28T15:33:28;21.70;56.40
73137;DHT22;62977;45.636;11.750;2022-09-28T15:36:34;21.70;57.20
73137;DHT22;62977;45.636;11.750;2022-09-28T15:41:54;21.80;57.20
73137;DHT22;62977;45.636;11.750;2022-09-28T15:44:29;21.70;56.90
73137;DHT22;62977;45.636;11.750;2022-09-28T15:47:27;21.60;57.40
73137;DHT22;62977;45.636;11.750;2022-09-28T15:50:04;21.60;57.80
73137;DHT22;62977;45.636;11.750;2022-09-28T15:55:19;21.40;58.20
73137;DHT22;62977;45.636;11.750;2022-09-28T15:57:45;21.30;58.20
73137;DHT22;62977;45.636;11.750;2022-09-28T16:00:27;21.30;58.00
73137;DHT22;62977;45.636;11.750;2022-09-28T16:05:40;21.10;59.40
73137;DHT22;62977;45.636;11.750;2022-09-28T16:08:21;21.10;59.30
73137;DHT22;62977;45.636;11.750;2022-09-28T16:11:19;21.10;58.60
73137;DHT22;62977;45.636;11.750;2022-09-28T16:14:03;21.10;58.90
73137;DHT22;62977;45.636;11.750;2022-09-28T16:16:46;21.00;59.80
73137;DHT22;62977;45.636;11.750;2022-09-28T16:19:36;21.00;59.90
73137;DHT22;62977;45.636;11.750;2022-09-28T16:22:06;21.00;60.40
73137;DHT22;62977;45.636;11.750;2022-09-28T16:24:38;20.90;60.10
73137;DHT22;62977;45.636;11.750;2022-09-28T16:30:15;20.90;60.80
73137;DHT22;62977;45.636;11.750;2022-09-28T16:33:25;20.80;62.10
73137;DHT22;62977;45.636;11.750;2022-09-28T16:35:51;20.80;62.30
73137;DHT22;62977;45.636;11.750;2022-09-28T16:38:18;20.80;62.50
73137;DHT22;62977;45.636;11.750;2022-09-28T16:40:48;20.80;63.20
73137;DHT22;62977;45.636;11.750;2022-09-28T16:43:22;20.80;62.90
73137;DHT22;62977;45.636;11.750;2022-09-28T16:45:56;20.60;63.70
73137;DHT22;62977;45.636;11.750;2022-09-28T16:48:28;20.50;64.00
73137;DHT22;62977;45.636;11.750;2022-09-28T16:50:55;20.30;64.40
73137;DHT22;62977;45.636;11.750;2022-09-28T16:53:21;20.30;65.60
73137;DHT22;62977;45.636;11.750;2022-09-28T16:56:06;20.10;65.50
73137;DHT22;62977;45.636;11.750;2022-09-28T16:58:32;20.10;65.40
73137;DHT22;62977;45.636;11.750;2022-09-28T17:00:58;20.00;65.90
73137;DHT22;62977;45.636;11.750;2022-09-28T17:03:26;19.80;65.80
73137;DHT22;62977;45.636;11.750;2022-09-28T17:05:54;19.90;66.00
73137;DHT22;62977;45.636;11.750;2022-09-28T17:08:22;19.90;65.80
73137;DHT22;62977;45.636;11.750;2022-09-28T17:13:24;19.90;65.50
73137;DHT22;62977;45.636;11.750;2022-09-28T17:15:56;19.90;65.80
73137;DHT22;62977;45.636;11.750;2022-09-28T17:18:23;19.90;65.70
73137;DHT22;62977;45.636;11.750;2022-09-28T17:20:50;19.80;65.80
73137;DHT22;62977;45.636;11.750;2022-09-28T17:23:17;19.80;65.70
73137;DHT22;62977;45.636;11.750;2022-09-28T17:25:43;19.80;65.00
73137;DHT22;62977;45.636;11.750;2022-09-28T17:28:32;19.80;64.80
73137;DHT22;62977;45.636;11.750;2022-09-28T17:30:58;19.70;65.30
73137;DHT22;62977;45.636;11.750;2022-09-28T17:33:24;19.70;65.20
73137;DHT22;62977;45.636;11.750;2022-09-28T17:35:58;19.70;65.00
73137;DHT22;62977;45.636;11.750;2022-09-28T17:38:25;19.60;65.40
73137;DHT22;62977;45.636;11.750;2022-09-28T17:40:51;19.50;66.30
73137;DHT22;62977;45.636;11.750;2022-09-28T17:43:17;19.60;66.10
73137;DHT22;62977;45.636;11.750;2022-09-28T17:45:46;19.40;65.80
73137;DHT22;62977;45.636;11.750;2022-09-28T17:48:15;19.50;66.30
73137;DHT22;62977;45.636;11.750;2022-09-28T17:50:43;19.50;66.50
73137;DHT22;62977;45.636;11.750;2022-09-28T17:53:09;19.50;66.30
73137;DHT22;62977;45.636;11.750;2022-09-28T17:55:37;19.30;66.70
73137;DHT22;62977;45.636;11.750;2022-09-28T17:58:21;19.30;66.70
73137;DHT22;62977;45.636;11.750;2022-09-28T18:00:48;19.40;67.00
73137;DHT22;62977;45.636;11.750;2022-09-28T18:03:24;19.20;67.10
73137;DHT22;62977;45.636;11.750;2022-09-28T18:06:03;19.10;67.50
73137;DHT22;62977;45.636;11.750;2022-09-28T18:08:29;19.20;66.90
73137;DHT22;62977;45.636;11.750;2022-09-28T18:10:56;19.20;67.40
73137;DHT22;62977;45.636;11.750;2022-09-28T18:13:23;19.30;67.60
73137;DHT22;62977;45.636;11.750;2022-09-28T18:15:54;19.20;67.80
73137;DHT22;62977;45.636;11.750;2022-09-28T18:18:22;19.20;68.00
73137;DHT22;62977;45.636;11.750;2022-09-28T18:20:48;19.00;69.80
73137;DHT22;62977;45.636;11.750;2022-09-28T18:23:14;19.00;70.00
73137;DHT22;62977;45.636;11.750;2022-09-28T18:25:42;19.10;69.90
73137;DHT22;62977;45.636;11.750;2022-09-28T18:28:10;19.00;70.10
73137;DHT22;62977;45.636;11.750;2022-09-28T18:30:42;19.00;70.20
73137;DHT22;62977;45.636;11.750;2022-09-28T18:33:10;18.80;70.30
73137;DHT22;62977;45.636;11.750;2022-09-28T18:35:38;18.80;70.20
73137;DHT22;62977;45.636;11.750;2022-09-28T18:38:05;18.80;70.40
73137;DHT22;62977;45.636;11.750;2022-09-28T18:40:35;18.80;70.40
73137;DHT22;62977;45.636;11.750;2022-09-28T18:43:02;18.70;70.80
73137;DHT22;62977;45.636;11.750;2022-09-28T18:45:28;18.60;70.60